Time;durP1;ratioP1;P1;durP2;ratioP2;P2;SDS_P1;SDS_P2;PMS_P1;PMS_P2;Temp;Humidity;BMP_temperature;BMP_pressure;BME280_temperature;BME280_humidity;BME280_pressure;Samples;Min_cycle;Max_cycle;Signal;HPM_P1;HPM_P2
2023/05/09 00:02:22;;;;;;;4.00;1.57;;;;;;;;;;5060649;28;20217;-63
2023/05/09 00:04:50;;;;;;;1.87;1.50;;;;;;;;;;5060568;28;20306;-62
2023/05/09 00:07:18;;;;;;;3.53;1.50;;;;;;;;;;5060968;28;20215;-62
2023/05/09 00:09:46;;;;;;;3.20;1.67;;;;;;;;;;5060531;28;20203;-63
2023/05/09 00:12:14;;;;;;;1.73;1.50;;;;;;;;;;5060776;28;20223;-62
2023/05/09 00:14:44;;;;;;;1.77;1.63;;;;;;;;;;5060657;28;20214;-63
2023/05/09 00:17:14;;;;;;;2.40;1.73;;;;;;;;;;5060620;28;20221;-63
2023/05/09 00:19:43;;;;;;;2.97;1.70;;;;;;;;;;5060337;28;20226;-63
2023/05/09 00:22:11;;;;;;;1.60;1.50;;;;;;;;;;5060418;28;20566;-63
2023/05/09 00:24:40;;;;;;;3.40;1.90;;;;;;;;;;5060080;28;20234;-63
2023/05/09 00:27:08;;;;;;;1.60;1.50;;;;;;;;;;5060330;28;20237;-63
2023/05/09 00:29:36;;;;;;;3.17;1.50;;;;;;;;;;5060109;28;20238;-63
2023/05/09 00:32:05;;;;;;;2.10;1.63;;;;;;;;;;5059990;28;20233;-62
2023/05/09 00:34:33;;;;;;;1.70;1.60;;;;;;;;;;5060080;28;20294;-63
2023/05/09 00:37:02;;;;;;;1.97;1.60;;;;;;;;;;5060126;28;20226;-62
2023/05/09 00:39:29;;;;;;;3.17;1.80;;;;;;;;;;5059638;28;20302;-63
2023/05/09 00:41:57;;;;;;;1.50;1.40;;;;;;;;;;5059959;28;20641;-63
2023/05/09 00:44:25;;;;;;;1.73;1.63;;;;;;;;;;5059908;28;20619;-63
2023/05/09 00:46:53;;;;;;;1.33;1.23;;;;;;;;;;5060010;28;20231;-63
2023/05/09 00:49:23;;;;;;;3.30;1.43;;;;;;;;;;5059667;28;20238;-63
2023/05/09 00:51:51;;;;;;;1.57;1.10;;;;;;;;;;5059891;28;20226;-63
2023/05/09 00:54:19;;;;;;;1.43;1.33;;;;;;;;;;5060033;28;20238;-64
2023/05/09 00:56:47;;;;;;;2.00;1.47;;;;;;;;;;5059796;28;20219;-63
2023/05/09 00:59:15;;;;;;;2.50;1.70;;;;;;;;;;5059655;28;20239;-63
2023/05/09 01:01:44;;;;;;;2.47;1.53;;;;;;;;;;5059748;28;20206;-63
2023/05/09 01:04:13;;;;;;;2.10;1.80;;;;;;;;;;5059320;28;20741;-63
2023/05/09 01:06:48;;;;;;;1.27;1.23;;;;;;;;;;5059661;28;20594;-63
2023/05/09 01:09:19;;;;;;;3.40;1.70;;;;;;;;;;5059800;28;20206;-63
2023/05/09 01:11:50;;;;;;;2.30;1.60;;;;;;;;;;5059610;28;20230;-63
2023/05/09 01:14:24;;;;;;;1.43;1.33;;;;;;;;;;5059575;28;20290;-63
2023/05/09 01:16:56;;;;;;;2.70;1.60;;;;;;;;;;5059449;28;20269;-64
2023/05/09 01:19:41;;;;;;;1.70;1.60;;;;;;;;;;5059149;28;20210;-63
2023/05/09 01:22:12;;;;;;;6.63;1.87;;;;;;;;;;5046614;28;20213;-63
2023/05/09 01:24:48;;;;;;;2.63;2.07;;;;;;;;;;5059044;28;20262;-63
2023/05/09 01:27:22;;;;;;;2.67;1.80;;;;;;;;;;5059139;28;20238;-63
2023/05/09 01:29:56;;;;;;;1.70;1.60;;;;;;;;;;5059413;28;20260;-63
2023/05/09 01:32:26;;;;;;;2.47;1.57;;;;;;;;;;5058769;28;20226;-62
2023/05/09 01:34:55;;;;;;;2.27;1.73;;;;;;;;;;5058980;28;20206;-63
2023/05/09 01:37:24;;;;;;;1.60;1.50;;;;;;;;;;5058911;28;20239;-63
2023/05/09 01:39:53;;;;;;;2.40;1.60;;;;;;;;;;5058914;28;20207;-63
2023/05/09 01:42:22;;;;;;;1.93;1.60;;;;;;;;;;5059040;28;20202;-63
2023/05/09 01:44:52;;;;;;;2.00;1.90;;;;;;;;;;5058961;28;20250;-62
2023/05/09 01:47:21;;;;;;;1.53;1.30;;;;;;;;;;5058565;28;20238;-63
2023/05/09 01:49:49;;;;;;;1.80;1.60;;;;;;;;;;5057590;28;20242;-63
2023/05/09 01:52:18;;;;;;;1.77;1.60;;;;;;;;;;5058846;28;20269;-63
2023/05/09 01:54:47;;;;;;;1.63;1.53;;;;;;;;;;5058664;28;20245;-63
2023/05/09 01:57:15;;;;;;;3.47;1.90;;;;;;;;;;5058769;28;20286;-63
2023/05/09 01:59:44;;;;;;;4.20;1.97;;;;;;;;;;5058690;28;20257;-63
2023/05/09 02:02:14;;;;;;;3.03;1.70;;;;;;;;;;5058333;28;20290;-63
2023/05/09 02:04:43;;;;;;;1.73;1.63;;;;;;;;;;5058611;28;20210;-63
2023/05/09 02:07:11;;;;;;;1.77;1.60;;;;;;;;;;5058654;28;20202;-63
2023/05/09 02:09:39;;;;;;;1.87;1.77;;;;;;;;;;5058634;28;20210;-63
2023/05/09 02:12:07;;;;;;;2.70;2.20;;;;;;;;;;5058552;28;20226;-63
2023/05/09 02:14:35;;;;;;;1.90;1.70;;;;;;;;;;5058450;28;20214;-62
2023/05/09 02:17:05;;;;;;;2.17;1.97;;;;;;;;;;5058309;28;20241;-63
2023/05/09 02:19:35;;;;;;;1.83;1.70;;;;;;;;;;5058143;28;20206;-62
2023/05/09 02:22:04;;;;;;;2.23;1.90;;;;;;;;;;5058352;28;20213;-62
2023/05/09 02:24:33;;;;;;;1.77;1.60;;;;;;;;;;5057969;28;20686;-62
2023/05/09 02:27:03;;;;;;;1.80;1.70;;;;;;;;;;5057911;28;20705;-62
2023/05/09 02:29:38;;;;;;;1.97;1.47;;;;;;;;;;5058109;28;20264;-62
2023/05/09 02:32:08;;;;;;;3.63;2.17;;;;;;;;;;5057984;28;20214;-62
2023/05/09 02:34:38;;;;;;;2.57;1.77;;;;;;;;;;5058157;28;20211;-63
2023/05/09 02:37:07;;;;;;;1.90;1.80;;;;;;;;;;5057735;28;20231;-63
2023/05/09 02:39:35;;;;;;;1.60;1.50;;;;;;;;;;5058098;28;20209;-63
2023/05/09 02:42:06;;;;;;;2.33;2.00;;;;;;;;;;5057784;28;20583;-63
2023/05/09 02:44:35;;;;;;;2.37;1.70;;;;;;;;;;5057744;28;20242;-62
2023/05/09 02:47:03;;;;;;;1.80;1.70;;;;;;;;;;5057732;28;20313;-62
2023/05/09 02:49:31;;;;;;;1.67;1.57;;;;;;;;;;5057485;28;20238;-63
2023/05/09 02:52:00;;;;;;;2.10;1.73;;;;;;;;;;5057726;28;20394;-62
2023/05/09 02:54:28;;;;;;;1.70;1.60;;;;;;;;;;5057735;28;20210;-62
2023/05/09 02:56:57;;;;;;;2.10;1.90;;;;;;;;;;5057781;28;20229;-62
2023/05/09 02:59:25;;;;;;;3.73;2.20;;;;;;;;;;5057729;28;20242;-62
2023/05/09 03:01:53;;;;;;;1.83;1.70;;;;;;;;;;5057542;28;20207;-62
2023/05/09 03:04:21;;;;;;;2.13;1.97;;;;;;;;;;5057361;28;20605;-63
2023/05/09 03:06:49;;;;;;;1.63;1.53;;;;;;;;;;5057719;28;20272;-62
2023/05/09 03:09:19;;;;;;;2.63;2.10;;;;;;;;;;5057516;28;20555;-62
2023/05/09 03:11:47;;;;;;;3.30;2.17;;;;;;;;;;5057485;28;20239;-62
2023/05/09 03:14:15;;;;;;;3.30;2.20;;;;;;;;;;5057545;28;20269;-62
2023/05/09 03:16:43;;;;;;;2.40;1.87;;;;;;;;;;5057420;28;20231;-62
2023/05/09 03:19:11;;;;;;;2.20;2.10;;;;;;;;;;5057089;28;20213;-63
2023/05/09 03:21:39;;;;;;;2.40;2.20;;;;;;;;;;5057429;28;20676;-62
2023/05/09 03:24:07;;;;;;;2.03;1.93;;;;;;;;;;5057254;28;20322;-62
2023/05/09 03:26:36;;;;;;;2.77;2.37;;;;;;;;;;5057467;28;20219;-62
2023/05/09 03:29:04;;;;;;;5.47;2.33;;;;;;;;;;5057580;28;20215;-62
2023/05/09 03:31:33;;;;;;;2.90;2.10;;;;;;;;;;5057191;28;20207;-63
2023/05/09 03:34:01;;;;;;;2.50;2.30;;;;;;;;;;5057032;28;20278;-62
2023/05/09 03:36:28;;;;;;;2.87;2.30;;;;;;;;;;5057487;28;20223;-63
2023/05/09 03:38:56;;;;;;;3.00;2.40;;;;;;;;;;5057403;28;20239;-63
2023/05/09 03:41:25;;;;;;;2.50;2.13;;;;;;;;;;5057313;28;20211;-63
2023/05/09 03:43:54;;;;;;;4.53;2.40;;;;;;;;;;5057382;28;20202;-62
2023/05/09 03:46:22;;;;;;;2.80;2.50;;;;;;;;;;5056924;28;20591;-62
2023/05/09 03:48:50;;;;;;;2.40;2.23;;;;;;;;;;5057090;28;20211;-63
2023/05/09 03:51:18;;;;;;;2.33;2.13;;;;;;;;;;5057383;28;20203;-63
2023/05/09 03:53:46;;;;;;;5.03;2.87;;;;;;;;;;5056893;28;20690;-63
2023/05/09 03:56:14;;;;;;;3.33;2.20;;;;;;;;;;5057280;28;20266;-62
2023/05/09 03:58:42;;;;;;;2.47;2.27;;;;;;;;;;5057096;28;20257;-64
2023/05/09 04:01:11;;;;;;;2.40;2.10;;;;;;;;;;5057323;28;20218;-62
2023/05/09 04:03:40;;;;;;;3.47;2.37;;;;;;;;;;5056902;28;20207;-62
2023/05/09 04:06:08;;;;;;;4.07;2.30;;;;;;;;;;5056821;28;20310;-62
2023/05/09 04:08:36;;;;;;;2.27;2.07;;;;;;;;;;5056927;28;20689;-63
2023/05/09 04:11:04;;;;;;;4.33;2.43;;;;;;;;;;5057066;28;20211;-62
2023/05/09 04:13:33;;;;;;;2.40;2.00;;;;;;;;;;5058865;28;20218;-62
2023/05/09 04:16:01;;;;;;;2.40;2.20;;;;;;;;;;5060641;28;20231;-62
2023/05/09 04:18:31;;;;;;;3.60;2.03;;;;;;;;;;5060324;28;20265;-62
2023/05/09 04:20:59;;;;;;;3.87;1.97;;;;;;;;;;5060605;28;20207;-62
2023/05/09 04:23:27;;;;;;;4.60;2.07;;;;;;;;;;5060350;28;20239;-62
2023/05/09 04:25:55;;;;;;;2.33;2.10;;;;;;;;;;5060219;28;20625;-62
2023/05/09 04:28:23;;;;;;;2.23;2.03;;;;;;;;;;5060263;28;20234;-62
2023/05/09 04:30:51;;;;;;;3.23;2.33;;;;;;;;;;5060132;28;20236;-62
2023/05/09 04:33:20;;;;;;;2.73;2.50;;;;;;;;;;5060104;28;20261;-62
2023/05/09 04:35:49;;;;;;;2.47;2.00;;;;;;;;;;5060209;28;20227;-61
2023/05/09 04:38:17;;;;;;;2.63;1.87;;;;;;;;;;5060062;28;20203;-63
2023/05/09 04:40:46;;;;;;;2.63;2.30;;;;;;;;;;5060243;28;20239;-61
2023/05/09 04:43:14;;;;;;;3.37;2.60;;;;;;;;;;5059952;28;20235;-64
2023/05/09 04:45:42;;;;;;;2.53;2.33;;;;;;;;;;5060082;28;20338;-64
2023/05/09 04:48:10;;;;;;;3.37;2.17;;;;;;;;;;5059795;28;20780;-63
2023/05/09 04:50:38;;;;;;;3.60;2.67;;;;;;;;;;5059747;28;20217;-64
2023/05/09 04:53:08;;;;;;;3.37;2.57;;;;;;;;;;5060124;28;20220;-64
2023/05/09 04:55:36;;;;;;;4.67;2.80;;;;;;;;;;5059903;28;20262;-64
2023/05/09 04:58:04;;;;;;;2.90;2.70;;;;;;;;;;5059811;28;20234;-64
2023/05/09 05:00:32;;;;;;;3.10;2.80;;;;;;;;;;5059870;28;20214;-62
2023/05/09 05:03:00;;;;;;;3.17;2.80;;;;;;;;;;5059441;28;20234;-62
2023/05/09 05:05:28;;;;;;;4.33;3.23;;;;;;;;;;5059337;28;20223;-62
2023/05/09 05:07:56;;;;;;;4.27;2.70;;;;;;;;;;5059876;28;20214;-64
2023/05/09 05:10:25;;;;;;;6.43;2.93;;;;;;;;;;5059502;28;20685;-62
2023/05/09 05:12:53;;;;;;;3.50;2.80;;;;;;;;;;5059308;28;20221;-62
2023/05/09 05:15:21;;;;;;;3.40;3.10;;;;;;;;;;5059301;28;20646;-62
2023/05/09 05:17:49;;;;;;;3.33;2.40;;;;;;;;;;5059529;28;20222;-62
2023/05/09 05:20:17;;;;;;;2.67;2.47;;;;;;;;;;5059087;28;20676;-62
2023/05/09 05:22:45;;;;;;;3.10;2.80;;;;;;;;;;5059040;28;20717;-62
2023/05/09 05:25:13;;;;;;;3.43;2.60;;;;;;;;;;5059274;28;20286;-64
2023/05/09 05:27:43;;;;;;;3.03;2.83;;;;;;;;;;5059228;28;20213;-64
2023/05/09 05:30:14;;;;;;;4.50;2.80;;;;;;;;;;5059717;28;20207;-64
2023/05/09 05:32:42;;;;;;;4.17;2.97;;;;;;;;;;5058953;28;20318;-64
2023/05/09 05:35:11;;;;;;;2.70;2.50;;;;;;;;;;5058568;28;20241;-64
2023/05/09 05:37:40;;;;;;;5.27;2.80;;;;;;;;;;5059199;28;20606;-64
2023/05/09 05:40:08;;;;;;;4.80;2.83;;;;;;;;;;5059221;28;20207;-64
2023/05/09 05:42:36;;;;;;;4.67;3.47;;;;;;;;;;5058904;28;20214;-64
2023/05/09 05:45:09;;;;;;;7.03;4.17;;;;;;;;;;5058743;28;20223;-64
2023/05/09 05:47:37;;;;;;;3.47;3.17;;;;;;;;;;5058766;28;20619;-64
2023/05/09 05:50:07;;;;;;;4.57;3.27;;;;;;;;;;5058339;28;20229;-64
2023/05/09 05:52:35;;;;;;;8.40;3.37;;;;;;;;;;5058924;28;20209;-63
2023/05/09 05:55:03;;;;;;;5.23;3.27;;;;;;;;;;5058640;28;20230;-64
2023/05/09 05:57:31;;;;;;;5.03;3.07;;;;;;;;;;5058650;28;20209;-64
2023/05/09 05:59:59;;;;;;;5.87;3.20;;;;;;;;;;5058475;28;20265;-63
2023/05/09 06:02:28;;;;;;;4.90;3.63;;;;;;;;;;5058611;28;20217;-64
2023/05/09 06:04:56;;;;;;;6.93;3.23;;;;;;;;;;5058057;28;20563;-64
2023/05/09 06:07:24;;;;;;;5.47;3.60;;;;;;;;;;5058368;28;20620;-64
2023/05/09 06:09:52;;;;;;;5.00;3.60;;;;;;;;;;5058130;28;20707;-64
2023/05/09 06:12:20;;;;;;;5.90;3.37;;;;;;;;;;5058305;28;20239;-64
2023/05/09 06:14:48;;;;;;;4.63;3.17;;;;;;;;;;5057966;28;20227;-63
2023/05/09 06:17:16;;;;;;;4.90;3.73;;;;;;;;;;5058000;28;20246;-64
2023/05/09 06:19:46;;;;;;;5.33;3.63;;;;;;;;;;5058116;28;20245;-64
2023/05/09 06:22:14;;;;;;;5.40;4.00;;;;;;;;;;5058280;28;20210;-64
2023/05/09 06:24:42;;;;;;;4.03;3.57;;;;;;;;;;5057697;28;20289;-64
2023/05/09 06:27:10;;;;;;;4.90;4.20;;;;;;;;;;5057875;28;20199;-64
2023/05/09 06:29:41;;;;;;;7.53;4.17;;;;;;;;;;5058173;28;20218;-64
2023/05/09 06:32:08;;;;;;;6.30;4.37;;;;;;;;;;5057964;28;20209;-64
2023/05/09 06:34:36;;;;;;;6.20;4.40;;;;;;;;;;5057793;28;20258;-64
2023/05/09 06:37:06;;;;;;;9.97;5.00;;;;;;;;;;5057166;28;20226;-64
2023/05/09 06:39:34;;;;;;;9.50;5.10;;;;;;;;;;5057907;28;20218;-64
2023/05/09 06:42:01;;;;;;;11.50;5.10;;;;;;;;;;5057955;28;20211;-64
2023/05/09 06:44:29;;;;;;;9.33;5.23;;;;;;;;;;5058014;28;20285;-64
2023/05/09 06:46:57;;;;;;;11.63;6.70;;;;;;;;;;5057437;28;20686;-64
2023/05/09 06:49:25;;;;;;;10.43;5.63;;;;;;;;;;5057499;28;20252;-64
2023/05/09 06:51:53;;;;;;;10.03;5.57;;;;;;;;;;5057588;28;20210;-63
2023/05/09 06:54:22;;;;;;;10.80;5.73;;;;;;;;;;5057418;28;20329;-62
2023/05/09 06:56:50;;;;;;;10.43;5.60;;;;;;;;;;5057294;28;20215;-62
2023/05/09 06:59:18;;;;;;;10.90;5.20;;;;;;;;;;5057533;28;20611;-62
2023/05/09 07:01:46;;;;;;;10.43;5.53;;;;;;;;;;5057293;28;20337;-62
2023/05/09 07:04:14;;;;;;;7.57;5.50;;;;;;;;;;5057249;28;20714;-62
2023/05/09 07:06:42;;;;;;;5.53;4.43;;;;;;;;;;5057355;28;20752;-62
2023/05/09 07:09:10;;;;;;;8.30;4.63;;;;;;;;;;5057620;28;20214;-62
2023/05/09 07:11:39;;;;;;;6.77;4.67;;;;;;;;;;5057324;28;20207;-62
2023/05/09 07:14:07;;;;;;;13.80;4.73;;;;;;;;;;5057451;28;20207;-61
2023/05/09 07:16:35;;;;;;;11.03;5.03;;;;;;;;;;5057127;28;20698;-62
2023/05/09 07:19:04;;;;;;;12.27;4.83;;;;;;;;;;5057507;28;20260;-62
2023/05/09 07:21:33;;;;;;;12.80;4.87;;;;;;;;;;5057412;28;20234;-62
2023/05/09 07:24:01;;;;;;;9.37;5.17;;;;;;;;;;5057313;28;20318;-62
2023/05/09 07:26:29;;;;;;;8.37;4.87;;;;;;;;;;5057205;28;20211;-62
2023/05/09 07:28:58;;;;;;;7.13;4.37;;;;;;;;;;5057242;28;20234;-64
2023/05/09 07:31:26;;;;;;;7.40;4.63;;;;;;;;;;5057155;28;20229;-64
2023/05/09 07:33:54;;;;;;;6.40;4.60;;;;;;;;;;5056952;28;20257;-64
2023/05/09 07:36:22;;;;;;;5.73;3.73;;;;;;;;;;5057155;28;20600;-62
2023/05/09 07:38:53;;;;;;;6.27;3.90;;;;;;;;;;5057190;28;20632;-63
2023/05/09 07:41:25;;;;;;;5.53;3.13;;;;;;;;;;5057363;28;20685;-62
2023/05/09 07:43:53;;;;;;;9.23;3.30;;;;;;;;;;5057115;28;20621;-63
2023/05/09 07:46:22;;;;;;;6.17;3.67;;;;;;;;;;5057204;28;20282;-61
2023/05/09 07:48:50;;;;;;;8.47;3.63;;;;;;;;;;5059412;28;20218;-64
2023/05/09 07:51:18;;;;;;;4.97;3.50;;;;;;;;;;5060917;28;20233;-63
2023/05/09 07:53:46;;;;;;;4.63;3.23;;;;;;;;;;5061090;28;20297;-63
2023/05/09 07:56:14;;;;;;;5.40;2.90;;;;;;;;;;5060697;28;20270;-63
2023/05/09 07:58:42;;;;;;;7.20;3.30;;;;;;;;;;5060958;28;20245;-63
2023/05/09 08:01:10;;;;;;;5.43;3.63;;;;;;;;;;5061164;28;20215;-63
2023/05/09 08:03:40;;;;;;;5.53;3.30;;;;;;;;;;5060285;28;20218;-63
2023/05/09 08:06:08;;;;;;;8.13;3.37;;;;;;;;;;5060692;28;20748;-63
2023/05/09 08:08:36;;;;;;;6.10;3.87;;;;;;;;;;5060924;28;20244;-64
2023/05/09 08:11:05;;;;;;;4.40;2.23;;;;;;;;;;5060558;28;20664;-64
2023/05/09 08:13:36;;;;;;;2.63;2.00;;;;;;;;;;5060792;28;20291;-63
2023/05/09 08:16:04;;;;;;;2.30;1.70;;;;;;;;;;5060537;28;20235;-64
2023/05/09 08:18:32;;;;;;;3.47;2.37;;;;;;;;;;5060453;28;20218;-63
2023/05/09 08:24:30;;;;;;;2.20;2.00;;;;;;;;;;5050884;28;20264;-63
2023/05/09 08:26:58;;;;;;;3.73;2.33;;;;;;;;;;5060440;28;20219;-63
2023/05/09 08:29:27;;;;;;;2.30;2.07;;;;;;;;;;5060621;28;20245;-63
2023/05/09 08:31:55;;;;;;;3.13;2.20;;;;;;;;;;5059955;28;20210;-63
2023/05/09 08:34:23;;;;;;;2.60;2.03;;;;;;;;;;5060207;28;20238;-64
2023/05/09 08:36:52;;;;;;;2.03;1.87;;;;;;;;;;5060095;28;20255;-64
2023/05/09 08:39:20;;;;;;;2.83;2.00;;;;;;;;;;5060284;28;20203;-64
2023/05/09 08:41:49;;;;;;;2.33;1.93;;;;;;;;;;5060230;28;20204;-64
2023/05/09 08:44:17;;;;;;;1.97;1.70;;;;;;;;;;5059906;28;20601;-64
2023/05/09 08:46:49;;;;;;;2.30;2.03;;;;;;;;;;5059936;28;20234;-63
2023/05/09 08:49:17;;;;;;;2.33;2.00;;;;;;;;;;5059633;28;20359;-63
2023/05/09 08:51:46;;;;;;;3.77;2.30;;;;;;;;;;5059781;28;20594;-64
2023/05/09 08:54:14;;;;;;;3.30;1.87;;;;;;;;;;5060052;28;20223;-64
2023/05/09 08:56:45;;;;;;;3.23;1.80;;;;;;;;;;5059781;28;20242;-64
2023/05/09 08:59:18;;;;;;;3.57;2.10;;;;;;;;;;5059286;28;20208;-64
2023/05/09 09:01:46;;;;;;;2.13;2.00;;;;;;;;;;5046970;28;20571;-63
2023/05/09 09:04:14;;;;;;;2.37;1.80;;;;;;;;;;5059603;28;20229;-63
2023/05/09 09:06:42;;;;;;;1.77;1.67;;;;;;;;;;5059796;28;20219;-64
2023/05/09 09:09:11;;;;;;;2.87;1.83;;;;;;;;;;5059861;28;20289;-63
2023/05/09 09:11:40;;;;;;;4.03;2.53;;;;;;;;;;5059429;28;20218;-64
2023/05/09 09:14:12;;;;;;;4.33;2.10;;;;;;;;;;5059370;28;20632;-64
2023/05/09 09:16:43;;;;;;;3.10;1.70;;;;;;;;;;5059310;28;20231;-64
2023/05/09 09:19:12;;;;;;;3.73;1.90;;;;;;;;;;5059314;28;20211;-63
2023/05/09 09:21:41;;;;;;;4.00;1.70;;;;;;;;;;5059577;28;20239;-63
2023/05/09 09:24:12;;;;;;;2.30;1.90;;;;;;;;;;5059080;28;20244;-63
2023/05/09 09:26:45;;;;;;;2.17;1.83;;;;;;;;;;5059156;28;20263;-64
2023/05/09 09:29:14;;;;;;;1.73;1.63;;;;;;;;;;5059277;28;20208;-63
2023/05/09 09:31:45;;;;;;;1.73;1.60;;;;;;;;;;5059283;28;20209;-64
2023/05/09 09:34:19;;;;;;;3.23;1.60;;;;;;;;;;5058890;28;20210;-64
2023/05/09 09:36:47;;;;;;;1.70;1.50;;;;;;;;;;5058856;28;20244;-63
2023/05/09 09:39:15;;;;;;;3.07;1.63;;;;;;;;;;5058967;28;20219;-65
2023/05/09 09:41:44;;;;;;;3.53;1.57;;;;;;;;;;5058881;28;20293;-65
2023/05/09 09:44:13;;;;;;;2.60;1.50;;;;;;;;;;5058913;28;20233;-64
2023/05/09 09:46:42;;;;;;;3.17;1.77;;;;;;;;;;5058562;28;20229;-66
2023/05/09 09:49:12;;;;;;;2.43;1.80;;;;;;;;;;5058682;28;20243;-63
2023/05/09 09:51:40;;;;;;;4.87;1.60;;;;;;;;;;5058920;28;20213;-63
2023/05/09 09:54:09;;;;;;;3.23;1.70;;;;;;;;;;5059041;28;20215;-64
2023/05/09 09:56:41;;;;;;;2.33;1.93;;;;;;;;;;5058679;28;20265;-63
2023/05/09 09:59:10;;;;;;;3.03;1.70;;;;;;;;;;5058469;28;20235;-63
2023/05/09 10:01:57;;;;;;;4.20;1.77;;;;;;;;;;5058304;28;20242;-64
2023/05/09 10:04:27;;;;;;;3.33;1.53;;;;;;;;;;5058403;28;20243;-64
2023/05/09 10:06:55;;;;;;;2.10;1.80;;;;;;;;;;5058569;28;20220;-64
2023/05/09 10:09:24;;;;;;;1.63;1.43;;;;;;;;;;5058622;28;20256;-64
2023/05/09 10:11:52;;;;;;;4.97;2.33;;;;;;;;;;5057467;28;20268;-64
2023/05/09 10:14:22;;;;;;;3.60;1.40;;;;;;;;;;5058175;28;20212;-64
2023/05/09 10:16:51;;;;;;;2.30;1.53;;;;;;;;;;5057933;28;20598;-64
2023/05/09 10:19:20;;;;;;;1.67;1.57;;;;;;;;;;5057928;28;20235;-64
2023/05/09 10:21:52;;;;;;;1.33;1.23;;;;;;;;;;5058177;28;20663;-64
2023/05/09 10:24:22;;;;;;;2.80;1.57;;;;;;;;;;5057782;28;20247;-63
2023/05/09 10:26:52;;;;;;;2.67;1.70;;;;;;;;;;5057880;28;20282;-65
2023/05/09 10:29:21;;;;;;;6.13;1.87;;;;;;;;;;5057897;28;20228;-65
2023/05/09 10:31:52;;;;;;;1.43;1.30;;;;;;;;;;5058181;28;20241;-64
2023/05/09 10:34:22;;;;;;;1.30;1.20;;;;;;;;;;5057899;28;20216;-65
2023/05/09 10:36:51;;;;;;;1.77;1.37;;;;;;;;;;5057991;28;20262;-64
2023/05/09 10:39:19;;;;;;;1.77;1.37;;;;;;;;;;5057838;28;20243;-65
2023/05/09 10:41:48;;;;;;;1.50;1.20;;;;;;;;;;5057749;28;20570;-65
2023/05/09 10:44:16;;;;;;;2.57;1.40;;;;;;;;;;5057790;28;20238;-65
2023/05/09 10:46:45;;;;;;;1.13;1.03;;;;;;;;;;5057747;28;20230;-65
2023/05/09 10:49:14;;;;;;;1.50;1.23;;;;;;;;;;5057555;28;20391;-65
2023/05/09 10:51:41;;;;;;;1.60;1.20;;;;;;;;;;5057778;28;20217;-64
2023/05/09 10:54:15;;;;;;;1.33;1.20;;;;;;;;;;5057665;28;20210;-64
2023/05/09 10:56:43;;;;;;;1.53;1.00;;;;;;;;;;5058001;28;20245;-64
2023/05/09 10:59:26;;;;;;;1.37;1.13;;;;;;;;;;5057801;28;20235;-65
2023/05/09 11:01:59;;;;;;;1.47;1.10;;;;;;;;;;5056929;28;20266;-65
2023/05/09 11:04:27;;;;;;;1.67;1.30;;;;;;;;;;5057481;28;20204;-65
2023/05/09 11:06:55;;;;;;;1.90;1.37;;;;;;;;;;5057697;28;20232;-63
2023/05/09 11:09:27;;;;;;;1.90;1.30;;;;;;;;;;5057534;28;20210;-63
2023/05/09 11:11:56;;;;;;;1.47;1.30;;;;;;;;;;5057678;28;20205;-63
2023/05/09 11:14:31;;;;;;;1.40;1.30;;;;;;;;;;5057490;28;20206;-63
2023/05/09 11:16:59;;;;;;;3.17;1.20;;;;;;;;;;5057138;28;20316;-63
2023/05/09 11:19:34;;;;;;;1.17;1.07;;;;;;;;;;5057156;28;20246;-63
2023/05/09 11:22:02;;;;;;;2.13;1.60;;;;;;;;;;5058685;28;20208;-63
2023/05/09 11:24:33;;;;;;;2.03;1.50;;;;;;;;;;5061375;28;20662;-63
2023/05/09 11:27:01;;;;;;;1.20;1.20;;;;;;;;;;5058937;28;20588;-63
2023/05/09 11:29:30;;;;;;;3.83;1.60;;;;;;;;;;5061331;28;20198;-63
2023/05/09 11:32:07;;;;;;;2.83;1.60;;;;;;;;;;5061100;28;20705;-63
2023/05/09 11:34:36;;;;;;;1.50;1.40;;;;;;;;;;5060876;28;20222;-63
2023/05/09 11:37:09;;;;;;;1.93;1.80;;;;;;;;;;5060887;28;20695;-64
2023/05/09 11:39:52;;;;;;;2.20;1.70;;;;;;;;;;5061360;28;20254;-64
2023/05/09 11:42:23;;;;;;;2.70;1.80;;;;;;;;;;5061156;28;20209;-64
2023/05/09 11:44:51;;;;;;;3.30;1.87;;;;;;;;;;5061161;28;20206;-64
2023/05/09 11:47:19;;;;;;;1.90;1.77;;;;;;;;;;5060662;28;20206;-63
2023/05/09 11:49:50;;;;;;;3.70;1.80;;;;;;;;;;5060707;28;20584;-63
2023/05/09 11:52:19;;;;;;;4.93;1.83;;;;;;;;;;5060989;28;20207;-63
2023/05/09 11:54:48;;;;;;;2.00;1.60;;;;;;;;;;5060867;28;20205;-65
2023/05/09 11:57:17;;;;;;;4.93;2.20;;;;;;;;;;5060965;28;20253;-65
2023/05/09 11:59:46;;;;;;;1.60;1.50;;;;;;;;;;5060771;28;20205;-64
2023/05/09 12:02:14;;;;;;;1.70;1.60;;;;;;;;;;5060774;28;20202;-65
2023/05/09 12:04:42;;;;;;;2.00;1.80;;;;;;;;;;5060695;28;20213;-65
2023/05/09 12:07:11;;;;;;;2.73;1.53;;;;;;;;;;5060880;28;20212;-65
2023/05/09 12:09:39;;;;;;;2.90;1.80;;;;;;;;;;5060577;28;20231;-65
2023/05/09 12:12:11;;;;;;;4.90;1.60;;;;;;;;;;5060692;28;20205;-65
2023/05/09 12:14:39;;;;;;;1.80;1.70;;;;;;;;;;5060442;28;20241;-65
2023/05/09 12:17:09;;;;;;;2.97;1.87;;;;;;;;;;5060517;28;20315;-65
2023/05/09 12:19:37;;;;;;;3.20;1.90;;;;;;;;;;5060246;28;20218;-65
2023/05/09 12:22:05;;;;;;;2.40;1.87;;;;;;;;;;5060615;28;20210;-65
2023/05/09 12:24:35;;;;;;;3.03;2.17;;;;;;;;;;5060218;28;20247;-63
2023/05/09 12:27:03;;;;;;;1.80;1.70;;;;;;;;;;5060208;28;20257;-64
2023/05/09 12:29:31;;;;;;;4.83;2.27;;;;;;;;;;5060186;28;20234;-64
2023/05/09 12:32:00;;;;;;;2.10;1.90;;;;;;;;;;5060227;28;20575;-64
2023/05/09 12:34:29;;;;;;;4.37;2.20;;;;;;;;;;5059335;28;20293;-65
2023/05/09 12:36:58;;;;;;;3.70;2.30;;;;;;;;;;5060001;28;20285;-65
2023/05/09 12:39:29;;;;;;;5.77;2.80;;;;;;;;;;5059985;28;20297;-64
2023/05/09 12:41:57;;;;;;;2.10;1.93;;;;;;;;;;5060237;28;20210;-63
2023/05/09 12:44:28;;;;;;;2.30;2.10;;;;;;;;;;5060049;28;20237;-64
2023/05/09 12:46:57;;;;;;;2.83;1.53;;;;;;;;;;5060031;28;20228;-63
2023/05/09 12:49:25;;;;;;;2.57;1.83;;;;;;;;;;5059648;28;20208;-63
2023/05/09 12:51:55;;;;;;;2.27;1.40;;;;;;;;;;5060191;28;20239;-63
2023/05/09 12:54:24;;;;;;;3.97;1.70;;;;;;;;;;5059891;28;20209;-63
2023/05/09 12:56:54;;;;;;;2.10;1.90;;;;;;;;;;5059963;28;20216;-64
2023/05/09 12:59:23;;;;;;;3.97;1.57;;;;;;;;;;5059940;28;20230;-63
2023/05/09 13:01:55;;;;;;;2.17;1.57;;;;;;;;;;5059518;28;20212;-63
2023/05/09 13:04:26;;;;;;;2.40;1.50;;;;;;;;;;5059715;28;20203;-63
2023/05/09 13:06:58;;;;;;;1.40;1.30;;;;;;;;;;5059474;28;20246;-63
2023/05/09 13:09:30;;;;;;;5.23;1.40;;;;;;;;;;5059615;28;20203;-65
2023/05/09 13:11:58;;;;;;;3.20;1.43;;;;;;;;;;5059640;28;20208;-65
2023/05/09 13:14:26;;;;;;;2.73;1.20;;;;;;;;;;5059640;28;20211;-64
2023/05/09 13:16:54;;;;;;;2.67;1.27;;;;;;;;;;5059433;28;20257;-64
2023/05/09 13:19:26;;;;;;;3.13;1.50;;;;;;;;;;5058933;28;20231;-63
2023/05/09 13:21:56;;;;;;;2.60;1.30;;;;;;;;;;5059549;28;20203;-63
2023/05/09 13:24:23;;;;;;;1.33;1.20;;;;;;;;;;5059330;28;20240;-64
2023/05/09 13:30:14;;;;;;;3.10;1.37;;;;;;;;;;5047862;28;20194;-64
2023/05/09 13:32:42;;;;;;;3.13;1.40;;;;;;;;;;5039033;28;20615;-63
2023/05/09 13:35:10;;;;;;;1.67;1.37;;;;;;;;;;5039325;28;20227;-63
2023/05/09 13:37:39;;;;;;;1.70;1.30;;;;;;;;;;5039072;28;20713;-64
2023/05/09 13:40:08;;;;;;;1.70;1.33;;;;;;;;;;5038890;28;20228;-62
2023/05/09 13:42:36;;;;;;;2.03;1.50;;;;;;;;;;5039403;28;20204;-63
2023/05/09 13:45:04;;;;;;;3.13;1.90;;;;;;;;;;5038750;28;20239;-62
2023/05/09 13:47:33;;;;;;;3.17;1.60;;;;;;;;;;5039030;28;20619;-63
2023/05/09 13:50:04;;;;;;;1.93;1.60;;;;;;;;;;5038492;28;20290;-64
2023/05/09 13:52:31;;;;;;;4.67;1.97;;;;;;;;;;5039015;28;20214;-62
2023/05/09 13:55:04;;;;;;;2.00;1.80;;;;;;;;;;5045440;28;20202;-63
2023/05/09 13:57:31;;;;;;;4.23;2.40;;;;;;;;;;5058766;28;20203;-63
2023/05/09 14:00:03;;;;;;;7.30;3.30;;;;;;;;;;5058407;28;20666;-63
2023/05/09 14:02:31;;;;;;;2.70;2.13;;;;;;;;;;5058722;28;20215;-63
2023/05/09 14:05:01;;;;;;;5.13;2.60;;;;;;;;;;5058157;28;20213;-63
2023/05/09 14:07:29;;;;;;;6.50;3.03;;;;;;;;;;5058552;28;20306;-63
2023/05/09 14:10:00;;;;;;;3.13;2.63;;;;;;;;;;5058551;28;20209;-63
2023/05/09 14:12:42;;;;;;;5.97;2.80;;;;;;;;;;5058558;28;20245;-63
2023/05/09 14:15:11;;;;;;;5.17;2.77;;;;;;;;;;5058499;28;20231;-63
2023/05/09 14:17:39;;;;;;;3.47;2.67;;;;;;;;;;5058071;28;20240;-63
2023/05/09 14:20:08;;;;;;;5.93;3.10;;;;;;;;;;5057980;28;20233;-63
2023/05/09 14:22:39;;;;;;;7.73;4.73;;;;;;;;;;5058361;28;20297;-63
2023/05/09 14:25:07;;;;;;;4.80;3.20;;;;;;;;;;5057972;28;20253;-63
2023/05/09 14:27:35;;;;;;;4.50;3.20;;;;;;;;;;5057830;28;20203;-63
2023/05/09 14:30:05;;;;;;;4.13;3.07;;;;;;;;;;5058056;28;20226;-62
2023/05/09 14:32:33;;;;;;;4.20;3.20;;;;;;;;;;5058008;28;20213;-63
2023/05/09 14:35:01;;;;;;;5.17;3.97;;;;;;;;;;5057920;28;20217;-63
2023/05/09 14:37:29;;;;;;;4.93;3.30;;;;;;;;;;5058141;28;20211;-63
2023/05/09 14:40:04;;;;;;;4.67;2.73;;;;;;;;;;5058158;28;20235;-63
2023/05/09 14:42:32;;;;;;;3.83;2.80;;;;;;;;;;5057770;28;20276;-63
2023/05/09 14:44:59;;;;;;;7.10;2.83;;;;;;;;;;5058080;28;20214;-64
2023/05/09 14:47:29;;;;;;;3.47;2.67;;;;;;;;;;5058006;28;20207;-65
2023/05/09 14:49:57;;;;;;;5.93;3.60;;;;;;;;;;5057383;28;20205;-63
2023/05/09 14:52:25;;;;;;;5.23;2.40;;;;;;;;;;5057716;28;20662;-63
2023/05/09 14:54:53;;;;;;;4.33;2.73;;;;;;;;;;5057719;28;20293;-63
2023/05/09 14:57:21;;;;;;;4.40;2.73;;;;;;;;;;5057333;28;20210;-65
2023/05/09 14:59:48;;;;;;;5.23;2.30;;;;;;;;;;5057364;28;20234;-64
2023/05/09 15:02:16;;;;;;;7.33;2.20;;;;;;;;;;5057699;28;20211;-63